sensor_id;sensor_type;location;lat;lon;timestamp;temperature;humidity
3134;DHT22;1577;49.912;10.924;2024-01-30T00:01:15;-0.40;99.90
3134;DHT22;1577;49.912;10.924;2024-01-30T00:03:40;-0.40;99.90
3134;DHT22;1577;49.912;10.924;2024-01-30T00:06:07;-0.50;99.90
3134;DHT22;1577;49.912;10.924;2024-01-30T00:08:33;-0.50;99.90
3134;DHT22;1577;49.912;10.924;2024-01-30T00:10:59;-0.50;99.90
3134;DHT22;1577;49.912;10.924;2024-01-30T00:13:24;-0.50;99.90
3134;DHT22;1577;49.912;10.924;2024-01-30T00:15:50;-0.50;99.90
3134;DHT22;1577;49.912;10.924;2024-01-30T00:18:15;-0.50;99.90
3134;DHT22;1577;49.912;10.924;2024-01-30T00:20:41;-0.50;99.90
3134;DHT22;1577;49.912;10.924;2024-01-30T00:23:08;-0.60;99.90
3134;DHT22;1577;49.912;10.924;2024-01-30T00:25:33;-0.60;99.90
3134;DHT22;1577;49.912;10.924;2024-01-30T00:27:59;-0.60;99.90
3134;DHT22;1577;49.912;10.924;2024-01-30T00:30:25;-0.60;99.90
3134;DHT22;1577;49.912;10.924;2024-01-30T00:32:51;-0.60;99.90
3134;DHT22;1577;49.912;10.924;2024-01-30T00:35:16;-0.60;99.90
3134;DHT22;1577;49.912;10.924;2024-01-30T00:37:42;-0.60;99.90
3134;DHT22;1577;49.912;10.924;2024-01-30T00:40:08;-0.60;99.90
3134;DHT22;1577;49.912;10.924;2024-01-30T00:42:35;-0.60;99.90
3134;DHT22;1577;49.912;10.924;2024-01-30T00:45:01;-0.70;99.90
3134;DHT22;1577;49.912;10.924;2024-01-30T00:47:27;-0.70;99.90
3134;DHT22;1577;49.912;10.924;2024-01-30T00:49:54;-0.70;99.90
3134;DHT22;1577;49.912;10.924;2024-01-30T00:52:20;-0.80;99.90
3134;DHT22;1577;49.912;10.924;2024-01-30T00:54:45;-0.70;99.90
3134;DHT22;1577;49.912;10.924;2024-01-30T00:57:11;-0.80;99.90
3134;DHT22;1577;49.912;10.924;2024-01-30T00:59:36;-0.70;99.90
3134;DHT22;1577;49.912;10.924;2024-01-30T01:02:02;-0.80;99.90
3134;DHT22;1577;49.912;10.924;2024-01-30T01:04:27;-0.80;99.90
3134;DHT22;1577;49.912;10.924;2024-01-30T01:06:53;-0.80;99.90
3134;DHT22;1577;49.912;10.924;2024-01-30T01:09:19;-0.80;99.90
3134;DHT22;1577;49.912;10.924;2024-01-30T01:11:44;-0.80;99.90
3134;DHT22;1577;49.912;10.924;2024-01-30T01:14:10;-0.80;99.90
3134;DHT22;1577;49.912;10.924;2024-01-30T01:16:35;-0.80;99.90
3134;DHT22;1577;49.912;10.924;2024-01-30T01:19:01;-0.80;99.90
3134;DHT22;1577;49.912;10.924;2024-01-30T01:21:26;-0.80;99.90
3134;DHT22;1577;49.912;10.924;2024-01-30T01:23:52;-0.80;99.90
3134;DHT22;1577;49.912;10.924;2024-01-30T01:26:18;-0.80;99.90
3134;DHT22;1577;49.912;10.924;2024-01-30T01:28:43;-0.80;99.90
3134;DHT22;1577;49.912;10.924;2024-01-30T01:31:09;-0.90;99.90
3134;DHT22;1577;49.912;10.924;2024-01-30T01:33:34;-0.80;99.90
3134;DHT22;1577;49.912;10.924;2024-01-30T01:36:02;-0.80;99.90
3134;DHT22;1577;49.912;10.924;2024-01-30T01:38:28;-0.70;99.90
3134;DHT22;1577;49.912;10.924;2024-01-30T01:40:54;-0.50;99.90
3134;DHT22;1577;49.912;10.924;2024-01-30T01:43:19;-0.60;99.90
3134;DHT22;1577;49.912;10.924;2024-01-30T01:45:45;-0.70;99.90
3134;DHT22;1577;49.912;10.924;2024-01-30T01:48:11;-0.80;99.90
3134;DHT22;1577;49.912;10.924;2024-01-30T01:50:38;-0.80;99.90
3134;DHT22;1577;49.912;10.924;2024-01-30T01:53:06;-0.80;99.90
3134;DHT22;1577;49.912;10.924;2024-01-30T01:55:33;-0.80;99.90
3134;DHT22;1577;49.912;10.924;2024-01-30T01:57:59;-0.80;99.90
3134;DHT22;1577;49.912;10.924;2024-01-30T02:00:25;-0.80;99.90
3134;DHT22;1577;49.912;10.924;2024-01-30T02:02:51;-0.90;99.90
3134;DHT22;1577;49.912;10.924;2024-01-30T02:05:19;-0.90;99.90
3134;DHT22;1577;49.912;10.924;2024-01-30T02:07:45;-0.90;99.90
3134;DHT22;1577;49.912;10.924;2024-01-30T02:10:11;-1.00;99.90
3134;DHT22;1577;49.912;10.924;2024-01-30T02:12:36;-1.00;99.90
3134;DHT22;1577;49.912;10.924;2024-01-30T02:15:02;-1.00;99.90
3134;DHT22;1577;49.912;10.924;2024-01-30T02:17:28;-1.10;99.90
3134;DHT22;1577;49.912;10.924;2024-01-30T02:19:53;-1.10;99.90
3134;DHT22;1577;49.912;10.924;2024-01-30T02:22:20;-1.10;99.90
3134;DHT22;1577;49.912;10.924;2024-01-30T02:24:46;-1.00;99.90
3134;DHT22;1577;49.912;10.924;2024-01-30T02:27:12;-1.00;99.90
3134;DHT22;1577;49.912;10.924;2024-01-30T02:29:37;-0.90;99.90
3134;DHT22;1577;49.912;10.924;2024-01-30T02:32:16;-0.90;99.90
3134;DHT22;1577;49.912;10.924;2024-01-30T02:34:41;-1.00;99.90
3134;DHT22;1577;49.912;10.924;2024-01-30T02:37:07;-0.90;99.90
3134;DHT22;1577;49.912;10.924;2024-01-30T02:39:33;-0.90;99.90
3134;DHT22;1577;49.912;10.924;2024-01-30T02:41:58;-1.00;99.90
3134;DHT22;1577;49.912;10.924;2024-01-30T02:44:24;-1.00;99.90
3134;DHT22;1577;49.912;10.924;2024-01-30T02:46:49;-1.10;99.90
3134;DHT22;1577;49.912;10.924;2024-01-30T02:49:15;-1.10;99.90
3134;DHT22;1577;49.912;10.924;2024-01-30T02:51:40;-1.10;99.90
3134;DHT22;1577;49.912;10.924;2024-01-30T02:54:06;-1.20;99.90
3134;DHT22;1577;49.912;10.924;2024-01-30T02:56:32;-1.20;99.90
3134;DHT22;1577;49.912;10.924;2024-01-30T02:58:57;-1.20;99.90
3134;DHT22;1577;49.912;10.924;2024-01-30T03:01:23;-1.30;99.90
3134;DHT22;1577;49.912;10.924;2024-01-30T03:03:50;-1.30;99.90
3134;DHT22;1577;49.912;10.924;2024-01-30T03:06:15;-1.30;99.90
3134;DHT22;1577;49.912;10.924;2024-01-30T03:08:42;-1.30;99.90
3134;DHT22;1577;49.912;10.924;2024-01-30T03:11:08;-1.30;99.90
3134;DHT22;1577;49.912;10.924;2024-01-30T03:13:34;-1.40;99.90
3134;DHT22;1577;49.912;10.924;2024-01-30T03:15:59;-1.40;99.90
3134;DHT22;1577;49.912;10.924;2024-01-30T03:18:25;-1.40;99.90
3134;DHT22;1577;49.912;10.924;2024-01-30T03:20:50;-1.40;99.90
3134;DHT22;1577;49.912;10.924;2024-01-30T03:23:16;-1.40;99.90
3134;DHT22;1577;49.912;10.924;2024-01-30T03:25:41;-1.40;99.90
3134;DHT22;1577;49.912;10.924;2024-01-30T03:28:07;-1.40;99.90
3134;DHT22;1577;49.912;10.924;2024-01-30T03:30:34;-1.40;99.90
3134;DHT22;1577;49.912;10.924;2024-01-30T03:33:00;-1.40;99.90
3134;DHT22;1577;49.912;10.924;2024-01-30T03:35:26;-1.40;99.90
3134;DHT22;1577;49.912;10.924;2024-01-30T03:37:51;-1.50;99.90
3134;DHT22;1577;49.912;10.924;2024-01-30T03:40:17;-1.50;99.90
3134;DHT22;1577;49.912;10.924;2024-01-30T03:42:42;-1.50;99.90
3134;DHT22;1577;49.912;10.924;2024-01-30T03:45:08;-1.50;99.90
3134;DHT22;1577;49.912;10.924;2024-01-30T03:47:34;-1.50;99.90
3134;DHT22;1577;49.912;10.924;2024-01-30T03:49:59;-1.50;99.90
3134;DHT22;1577;49.912;10.924;2024-01-30T03:52:25;-1.50;99.90
3134;DHT22;1577;49.912;10.924;2024-01-30T03:54:50;-1.50;99.90
3134;DHT22;1577;49.912;10.924;2024-01-30T03:57:16;-1.60;99.90
3134;DHT22;1577;49.912;10.924;2024-01-30T03:59:42;-1.50;99.90
3134;DHT22;1577;49.912;10.924;2024-01-30T04:02:09;-1.60;99.90
3134;DHT22;1577;49.912;10.924;2024-01-30T04:04:35;-1.60;99.90
3134;DHT22;1577;49.912;10.924;2024-01-30T04:07:00;-1.60;99.90
3134;DHT22;1577;49.912;10.924;2024-01-30T04:09:26;-1.70;99.90
3134;DHT22;1577;49.912;10.924;2024-01-30T04:11:54;-1.70;99.90
3134;DHT22;1577;49.912;10.924;2024-01-30T04:14:19;-1.70;99.90
3134;DHT22;1577;49.912;10.924;2024-01-30T04:16:45;-1.60;99.90
3134;DHT22;1577;49.912;10.924;2024-01-30T04:19:10;-1.60;99.90
3134;DHT22;1577;49.912;10.924;2024-01-30T04:21:36;-1.60;99.90
3134;DHT22;1577;49.912;10.924;2024-01-30T04:24:01;-1.60;99.90
3134;DHT22;1577;49.912;10.924;2024-01-30T04:26:27;-1.60;99.90
3134;DHT22;1577;49.912;10.924;2024-01-30T04:28:53;-1.60;99.90
3134;DHT22;1577;49.912;10.924;2024-01-30T04:31:18;-1.60;99.90
3134;DHT22;1577;49.912;10.924;2024-01-30T04:33:44;-1.40;99.90
3134;DHT22;1577;49.912;10.924;2024-01-30T04:36:09;-1.50;99.90
3134;DHT22;1577;49.912;10.924;2024-01-30T04:38:38;-1.50;99.90
3134;DHT22;1577;49.912;10.924;2024-01-30T04:41:04;-1.50;99.90
3134;DHT22;1577;49.912;10.924;2024-01-30T04:43:30;-1.50;99.90
3134;DHT22;1577;49.912;10.924;2024-01-30T04:45:56;-1.60;99.90
3134;DHT22;1577;49.912;10.924;2024-01-30T04:48:21;-1.60;99.90
3134;DHT22;1577;49.912;10.924;2024-01-30T04:50:47;-1.60;99.90
3134;DHT22;1577;49.912;10.924;2024-01-30T04:53:13;-1.50;99.90
3134;DHT22;1577;49.912;10.924;2024-01-30T04:55:38;-1.40;99.90
3134;DHT22;1577;49.912;10.924;2024-01-30T04:58:04;-1.40;99.90
3134;DHT22;1577;49.912;10.924;2024-01-30T05:00:29;-1.40;99.90
3134;DHT22;1577;49.912;10.924;2024-01-30T05:02:55;-1.50;99.90
3134;DHT22;1577;49.912;10.924;2024-01-30T05:05:21;-1.50;99.90
3134;DHT22;1577;49.912;10.924;2024-01-30T05:07:47;-1.50;99.90
3134;DHT22;1577;49.912;10.924;2024-01-30T05:10:13;-1.50;99.90
3134;DHT22;1577;49.912;10.924;2024-01-30T05:12:39;-1.50;99.90
3134;DHT22;1577;49.912;10.924;2024-01-30T05:15:05;-1.50;99.90
3134;DHT22;1577;49.912;10.924;2024-01-30T05:17:31;-1.50;99.90
3134;DHT22;1577;49.912;10.924;2024-01-30T05:19:57;-1.50;99.90
3134;DHT22;1577;49.912;10.924;2024-01-30T05:22:22;-1.50;99.90
3134;DHT22;1577;49.912;10.924;2024-01-30T05:24:48;-1.50;99.90
3134;DHT22;1577;49.912;10.924;2024-01-30T05:27:14;-1.40;99.90
3134;DHT22;1577;49.912;10.924;2024-01-30T05:29:40;-1.40;99.90
3134;DHT22;1577;49.912;10.924;2024-01-30T05:32:06;-1.30;99.90
3134;DHT22;1577;49.912;10.924;2024-01-30T05:34:32;-1.30;99.90
3134;DHT22;1577;49.912;10.924;2024-01-30T05:36:58;-1.20;99.90
3134;DHT22;1577;49.912;10.924;2024-01-30T05:39:23;-1.20;99.90
3134;DHT22;1577;49.912;10.924;2024-01-30T05:41:49;-1.20;99.90
3134;DHT22;1577;49.912;10.924;2024-01-30T05:44:14;-1.20;99.90
3134;DHT22;1577;49.912;10.924;2024-01-30T05:46:40;-1.10;99.90
3134;DHT22;1577;49.912;10.924;2024-01-30T05:49:05;-1.00;99.90
3134;DHT22;1577;49.912;10.924;2024-01-30T05:51:31;-1.00;99.90
3134;DHT22;1577;49.912;10.924;2024-01-30T05:53:57;-1.00;99.90
3134;DHT22;1577;49.912;10.924;2024-01-30T05:56:22;-1.00;99.90
3134;DHT22;1577;49.912;10.924;2024-01-30T05:58:48;-1.00;99.90
3134;DHT22;1577;49.912;10.924;2024-01-30T06:01:15;-1.00;99.90
3134;DHT22;1577;49.912;10.924;2024-01-30T06:03:41;-0.90;99.90
3134;DHT22;1577;49.912;10.924;2024-01-30T06:06:08;-0.90;99.90
3134;DHT22;1577;49.912;10.924;2024-01-30T06:08:34;-0.90;99.90
3134;DHT22;1577;49.912;10.924;2024-01-30T06:11:00;-0.90;99.90
3134;DHT22;1577;49.912;10.924;2024-01-30T06:13:26;-0.70;99.90
3134;DHT22;1577;49.912;10.924;2024-01-30T06:15:52;-0.50;99.90
3134;DHT22;1577;49.912;10.924;2024-01-30T06:18:17;-0.50;99.90
3134;DHT22;1577;49.912;10.924;2024-01-30T06:20:43;-0.50;99.90
3134;DHT22;1577;49.912;10.924;2024-01-30T06:23:09;-0.50;99.90
3134;DHT22;1577;49.912;10.924;2024-01-30T06:25:34;-0.60;99.90
3134;DHT22;1577;49.912;10.924;2024-01-30T06:28:00;-0.50;99.90
3134;DHT22;1577;49.912;10.924;2024-01-30T06:30:25;-0.40;99.90
3134;DHT22;1577;49.912;10.924;2024-01-30T06:32:51;-0.30;99.90
3134;DHT22;1577;49.912;10.924;2024-01-30T06:35:17;-0.30;99.90
3134;DHT22;1577;49.912;10.924;2024-01-30T06:37:43;-0.30;99.90
3134;DHT22;1577;49.912;10.924;2024-01-30T06:40:09;-0.30;99.90
3134;DHT22;1577;49.912;10.924;2024-01-30T06:42:35;-0.20;99.90
3134;DHT22;1577;49.912;10.924;2024-01-30T06:45:00;-0.20;99.90
3134;DHT22;1577;49.912;10.924;2024-01-30T06:47:26;0.00;99.90
3134;DHT22;1577;49.912;10.924;2024-01-30T06:49:52;0.00;99.90
3134;DHT22;1577;49.912;10.924;2024-01-30T06:52:17;0.00;99.90
3134;DHT22;1577;49.912;10.924;2024-01-30T06:54:43;0.10;99.90
3134;DHT22;1577;49.912;10.924;2024-01-30T06:57:08;0.00;99.90
3134;DHT22;1577;49.912;10.924;2024-01-30T06:59:37;0.00;99.90
3134;DHT22;1577;49.912;10.924;2024-01-30T07:02:09;0.00;99.90
3134;DHT22;1577;49.912;10.924;2024-01-30T07:04:34;0.20;99.90
3134;DHT22;1577;49.912;10.924;2024-01-30T07:07:00;0.40;99.90
3134;DHT22;1577;49.912;10.924;2024-01-30T07:09:26;0.50;99.90
3134;DHT22;1577;49.912;10.924;2024-01-30T07:11:53;0.50;99.90
3134;DHT22;1577;49.912;10.924;2024-01-30T07:14:18;0.60;99.90
3134;DHT22;1577;49.912;10.924;2024-01-30T07:16:44;0.60;99.90
3134;DHT22;1577;49.912;10.924;2024-01-30T07:19:10;0.80;99.90
3134;DHT22;1577;49.912;10.924;2024-01-30T07:21:35;0.70;99.90
3134;DHT22;1577;49.912;10.924;2024-01-30T07:24:01;0.70;99.90
3134;DHT22;1577;49.912;10.924;2024-01-30T07:26:26;0.60;99.90
3134;DHT22;1577;49.912;10.924;2024-01-30T07:28:52;0.70;99.90
3134;DHT22;1577;49.912;10.924;2024-01-30T07:31:17;0.70;99.90
3134;DHT22;1577;49.912;10.924;2024-01-30T07:33:46;0.80;99.90
3134;DHT22;1577;49.912;10.924;2024-01-30T07:36:11;0.80;99.90
3134;DHT22;1577;49.912;10.924;2024-01-30T07:38:37;0.80;99.90
3134;DHT22;1577;49.912;10.924;2024-01-30T07:41:02;0.80;99.90
3134;DHT22;1577;49.912;10.924;2024-01-30T07:43:28;0.80;99.90
3134;DHT22;1577;49.912;10.924;2024-01-30T07:45:54;1.00;99.90
3134;DHT22;1577;49.912;10.924;2024-01-30T07:48:19;1.10;99.90
3134;DHT22;1577;49.912;10.924;2024-01-30T07:50:45;1.20;99.90
3134;DHT22;1577;49.912;10.924;2024-01-30T07:53:10;1.20;99.90
3134;DHT22;1577;49.912;10.924;2024-01-30T07:55:36;1.30;99.90
3134;DHT22;1577;49.912;10.924;2024-01-30T07:58:02;1.40;99.90
3134;DHT22;1577;49.912;10.924;2024-01-30T08:00:29;1.50;99.90
3134;DHT22;1577;49.912;10.924;2024-01-30T08:02:54;1.60;99.90
3134;DHT22;1577;49.912;10.924;2024-01-30T08:05:21;1.60;99.90
3134;DHT22;1577;49.912;10.924;2024-01-30T08:07:48;1.60;99.90
3134;DHT22;1577;49.912;10.924;2024-01-30T08:10:14;1.70;99.90
3134;DHT22;1577;49.912;10.924;2024-01-30T08:12:40;1.90;99.90
3134;DHT22;1577;49.912;10.924;2024-01-30T08:15:06;2.10;99.90
3134;DHT22;1577;49.912;10.924;2024-01-30T08:17:31;2.20;99.90
3134;DHT22;1577;49.912;10.924;2024-01-30T08:19:57;2.40;99.90
3134;DHT22;1577;49.912;10.924;2024-01-30T08:22:23;2.70;99.90
3134;DHT22;1577;49.912;10.924;2024-01-30T08:24:48;3.00;99.90
3134;DHT22;1577;49.912;10.924;2024-01-30T08:27:14;3.30;99.90
3134;DHT22;1577;49.912;10.924;2024-01-30T08:29:40;3.60;99.90
3134;DHT22;1577;49.912;10.924;2024-01-30T08:32:06;3.70;99.90
3134;DHT22;1577;49.912;10.924;2024-01-30T08:34:32;3.80;99.90
3134;DHT22;1577;49.912;10.924;2024-01-30T08:36:58;3.80;99.90
3134;DHT22;1577;49.912;10.924;2024-01-30T08:39:23;3.70;99.90
3134;DHT22;1577;49.912;10.924;2024-01-30T08:41:49;3.80;99.90
3134;DHT22;1577;49.912;10.924;2024-01-30T08:44:15;3.80;99.90
3134;DHT22;1577;49.912;10.924;2024-01-30T08:46:40;3.70;99.90
3134;DHT22;1577;49.912;10.924;2024-01-30T08:49:06;3.80;99.90
3134;DHT22;1577;49.912;10.924;2024-01-30T08:51:31;3.90;99.90
3134;DHT22;1577;49.912;10.924;2024-01-30T08:53:57;3.90;99.90
3134;DHT22;1577;49.912;10.924;2024-01-30T08:56:22;4.00;99.90
3134;DHT22;1577;49.912;10.924;2024-01-30T08:58:48;4.10;99.90
3134;DHT22;1577;49.912;10.924;2024-01-30T09:01:14;4.10;99.90
3134;DHT22;1577;49.912;10.924;2024-01-30T09:03:40;4.30;99.90
3134;DHT22;1577;49.912;10.924;2024-01-30T09:06:10;4.30;99.90
3134;DHT22;1577;49.912;10.924;2024-01-30T09:08:36;4.40;99.90
3134;DHT22;1577;49.912;10.924;2024-01-30T09:11:09;4.50;99.90
3134;DHT22;1577;49.912;10.924;2024-01-30T09:13:35;4.50;99.90
3134;DHT22;1577;49.912;10.924;2024-01-30T09:16:00;4.60;99.90
3134;DHT22;1577;49.912;10.924;2024-01-30T09:18:26;4.60;99.90
3134;DHT22;1577;49.912;10.924;2024-01-30T09:20:52;4.70;99.90
3134;DHT22;1577;49.912;10.924;2024-01-30T09:23:17;4.70;99.90
3134;DHT22;1577;49.912;10.924;2024-01-30T09:25:45;4.80;99.90
3134;DHT22;1577;49.912;10.924;2024-01-30T09:28:10;4.90;99.90
3134;DHT22;1577;49.912;10.924;2024-01-30T09:30:36;4.90;99.90
3134;DHT22;1577;49.912;10.924;2024-01-30T09:33:01;4.90;99.90
3134;DHT22;1577;49.912;10.924;2024-01-30T09:35:27;5.10;99.90
3134;DHT22;1577;49.912;10.924;2024-01-30T09:37:53;5.10;99.90
3134;DHT22;1577;49.912;10.924;2024-01-30T09:40:18;5.20;99.90
3134;DHT22;1577;49.912;10.924;2024-01-30T09:42:47;5.30;99.90
3134;DHT22;1577;49.912;10.924;2024-01-30T09:45:14;5.30;99.90
3134;DHT22;1577;49.912;10.924;2024-01-30T09:47:42;5.30;99.90
3134;DHT22;1577;49.912;10.924;2024-01-30T09:50:09;5.30;99.90
3134;DHT22;1577;49.912;10.924;2024-01-30T09:52:35;5.50;99.90
3134;DHT22;1577;49.912;10.924;2024-01-30T09:55:00;5.40;99.90
3134;DHT22;1577;49.912;10.924;2024-01-30T09:57:26;5.40;99.90
3134;DHT22;1577;49.912;10.924;2024-01-30T09:59:52;5.50;99.90
3134;DHT22;1577;49.912;10.924;2024-01-30T10:02:19;5.60;99.90
3134;DHT22;1577;49.912;10.924;2024-01-30T10:04:48;5.70;99.90
3134;DHT22;1577;49.912;10.924;2024-01-30T10:07:15;5.70;99.90
3134;DHT22;1577;49.912;10.924;2024-01-30T10:09:40;5.70;99.90
3134;DHT22;1577;49.912;10.924;2024-01-30T10:12:06;5.80;99.90
3134;DHT22;1577;49.912;10.924;2024-01-30T10:14:33;5.90;99.90
3134;DHT22;1577;49.912;10.924;2024-01-30T10:16:58;5.90;99.90
3134;DHT22;1577;49.912;10.924;2024-01-30T10:19:24;6.00;99.90
3134;DHT22;1577;49.912;10.924;2024-01-30T10:21:50;6.00;99.90
3134;DHT22;1577;49.912;10.924;2024-01-30T10:24:16;6.00;99.90
3134;DHT22;1577;49.912;10.924;2024-01-30T10:26:44;6.10;99.90
3134;DHT22;1577;49.912;10.924;2024-01-30T10:29:09;6.10;99.90
3134;DHT22;1577;49.912;10.924;2024-01-30T10:31:35;6.30;99.90
3134;DHT22;1577;49.912;10.924;2024-01-30T10:34:00;6.50;99.90
3134;DHT22;1577;49.912;10.924;2024-01-30T10:36:28;6.70;99.90
3134;DHT22;1577;49.912;10.924;2024-01-30T10:38:59;6.70;99.90
3134;DHT22;1577;49.912;10.924;2024-01-30T10:41:31;6.70;99.90
3134;DHT22;1577;49.912;10.924;2024-01-30T10:44:09;6.90;99.90
3134;DHT22;1577;49.912;10.924;2024-01-30T10:46:36;6.90;99.90
3134;DHT22;1577;49.912;10.924;2024-01-30T10:49:04;6.90;99.90
3134;DHT22;1577;49.912;10.924;2024-01-30T10:51:31;6.90;99.90
3134;DHT22;1577;49.912;10.924;2024-01-30T10:53:57;6.80;99.90
3134;DHT22;1577;49.912;10.924;2024-01-30T10:56:24;6.80;99.90
3134;DHT22;1577;49.912;10.924;2024-01-30T10:58:51;7.00;99.90
3134;DHT22;1577;49.912;10.924;2024-01-30T11:01:22;7.10;99.90
3134;DHT22;1577;49.912;10.924;2024-01-30T11:03:55;7.20;99.90
3134;DHT22;1577;49.912;10.924;2024-01-30T11:06:25;7.20;99.90
3134;DHT22;1577;49.912;10.924;2024-01-30T11:09:01;7.40;99.90
3134;DHT22;1577;49.912;10.924;2024-01-30T11:11:29;7.30;99.90
3134;DHT22;1577;49.912;10.924;2024-01-30T11:13:54;7.30;99.90
3134;DHT22;1577;49.912;10.924;2024-01-30T11:16:20;7.40;99.90
3134;DHT22;1577;49.912;10.924;2024-01-30T11:18:50;7.30;99.90
3134;DHT22;1577;49.912;10.924;2024-01-30T11:21:16;7.30;99.90
3134;DHT22;1577;49.912;10.924;2024-01-30T11:23:42;7.30;99.90
3134;DHT22;1577;49.912;10.924;2024-01-30T11:26:10;7.30;99.90
3134;DHT22;1577;49.912;10.924;2024-01-30T11:28:37;7.20;99.90
3134;DHT22;1577;49.912;10.924;2024-01-30T11:31:07;7.20;99.90
3134;DHT22;1577;49.912;10.924;2024-01-30T11:33:33;7.30;99.90
3134;DHT22;1577;49.912;10.924;2024-01-30T11:36:00;7.30;99.90
3134;DHT22;1577;49.912;10.924;2024-01-30T11:38:26;7.30;99.90
3134;DHT22;1577;49.912;10.924;2024-01-30T11:40:54;7.30;99.90
3134;DHT22;1577;49.912;10.924;2024-01-30T11:43:20;7.30;99.90
3134;DHT22;1577;49.912;10.924;2024-01-30T11:45:45;7.40;99.90
3134;DHT22;1577;49.912;10.924;2024-01-30T11:48:12;7.50;99.90
3134;DHT22;1577;49.912;10.924;2024-01-30T11:50:39;7.60;99.90
3134;DHT22;1577;49.912;10.924;2024-01-30T11:53:05;7.70;99.90
3134;DHT22;1577;49.912;10.924;2024-01-30T11:55:32;7.70;99.90
3134;DHT22;1577;49.912;10.924;2024-01-30T11:57:58;7.80;99.90
3134;DHT22;1577;49.912;10.924;2024-01-30T12:00:24;7.90;99.90
3134;DHT22;1577;49.912;10.924;2024-01-30T12:02:51;7.90;99.90
3134;DHT22;1577;49.912;10.924;2024-01-30T12:05:21;7.90;99.90
3134;DHT22;1577;49.912;10.924;2024-01-30T12:07:47;7.90;99.90
3134;DHT22;1577;49.912;10.924;2024-01-30T12:10:13;7.90;99.90
3134;DHT22;1577;49.912;10.924;2024-01-30T12:12:41;7.90;99.90
3134;DHT22;1577;49.912;10.924;2024-01-30T12:15:08;7.90;99.90
3134;DHT22;1577;49.912;10.924;2024-01-30T12:17:34;7.90;99.90
3134;DHT22;1577;49.912;10.924;2024-01-30T12:20:14;7.90;99.90
3134;DHT22;1577;49.912;10.924;2024-01-30T12:22:41;7.90;99.90
3134;DHT22;1577;49.912;10.924;2024-01-30T12:25:11;7.90;99.90
3134;DHT22;1577;49.912;10.924;2024-01-30T12:27:37;8.00;99.90
3134;DHT22;1577;49.912;10.924;2024-01-30T12:30:07;8.00;99.90
3134;DHT22;1577;49.912;10.924;2024-01-30T12:32:37;8.00;99.90
3134;DHT22;1577;49.912;10.924;2024-01-30T12:35:10;8.00;99.90
3134;DHT22;1577;49.912;10.924;2024-01-30T12:37:37;8.10;99.90
3134;DHT22;1577;49.912;10.924;2024-01-30T12:40:02;8.10;99.90
3134;DHT22;1577;49.912;10.924;2024-01-30T12:42:28;8.00;99.90
3134;DHT22;1577;49.912;10.924;2024-01-30T12:44:54;8.00;99.90
3134;DHT22;1577;49.912;10.924;2024-01-30T12:47:21;8.00;99.90
3134;DHT22;1577;49.912;10.924;2024-01-30T12:49:47;8.10;99.90
3134;DHT22;1577;49.912;10.924;2024-01-30T12:52:14;8.10;99.90
3134;DHT22;1577;49.912;10.924;2024-01-30T12:54:40;8.10;99.90
3134;DHT22;1577;49.912;10.924;2024-01-30T12:57:05;8.20;99.90
3134;DHT22;1577;49.912;10.924;2024-01-30T12:59:31;8.20;99.90
3134;DHT22;1577;49.912;10.924;2024-01-30T13:04:23;8.40;99.90
3134;DHT22;1577;49.912;10.924;2024-01-30T13:06:49;8.40;99.90
3134;DHT22;1577;49.912;10.924;2024-01-30T13:09:14;8.50;99.90
3134;DHT22;1577;49.912;10.924;2024-01-30T13:11:40;8.50;99.90
3134;DHT22;1577;49.912;10.924;2024-01-30T13:14:05;8.50;99.90
3134;DHT22;1577;49.912;10.924;2024-01-30T13:16:31;8.60;99.90
3134;DHT22;1577;49.912;10.924;2024-01-30T13:18:57;8.70;99.90
3134;DHT22;1577;49.912;10.924;2024-01-30T13:21:22;8.60;99.90
3134;DHT22;1577;49.912;10.924;2024-01-30T13:23:48;8.60;99.90
3134;DHT22;1577;49.912;10.924;2024-01-30T13:26:14;8.60;99.90
3134;DHT22;1577;49.912;10.924;2024-01-30T13:28:39;8.60;99.90
3134;DHT22;1577;49.912;10.924;2024-01-30T13:31:05;8.60;99.90
3134;DHT22;1577;49.912;10.924;2024-01-30T13:33:31;8.60;99.90
3134;DHT22;1577;49.912;10.924;2024-01-30T13:35:57;8.70;99.90
3134;DHT22;1577;49.912;10.924;2024-01-30T13:38:23;8.70;99.90
3134;DHT22;1577;49.912;10.924;2024-01-30T13:40:49;8.70;99.90
3134;DHT22;1577;49.912;10.924;2024-01-30T13:43:14;8.70;99.90
3134;DHT22;1577;49.912;10.924;2024-01-30T13:45:41;8.70;99.90
3134;DHT22;1577;49.912;10.924;2024-01-30T13:48:07;8.90;99.90
3134;DHT22;1577;49.912;10.924;2024-01-30T13:50:33;8.80;99.90
3134;DHT22;1577;49.912;10.924;2024-01-30T13:52:59;8.70;99.90
3134;DHT22;1577;49.912;10.924;2024-01-30T13:55:24;8.70;99.90
3134;DHT22;1577;49.912;10.924;2024-01-30T13:57:50;8.70;99.90
3134;DHT22;1577;49.912;10.924;2024-01-30T14:00:16;8.70;99.90
3134;DHT22;1577;49.912;10.924;2024-01-30T14:02:42;8.70;99.90
3134;DHT22;1577;49.912;10.924;2024-01-30T14:05:09;8.60;99.90
3134;DHT22;1577;49.912;10.924;2024-01-30T14:07:35;8.70;99.90
3134;DHT22;1577;49.912;10.924;2024-01-30T14:10:02;8.70;99.90
3134;DHT22;1577;49.912;10.924;2024-01-30T14:12:28;8.70;99.90
3134;DHT22;1577;49.912;10.924;2024-01-30T14:14:55;8.70;99.90
3134;DHT22;1577;49.912;10.924;2024-01-30T14:17:21;8.70;99.90
3134;DHT22;1577;49.912;10.924;2024-01-30T14:19:46;8.60;99.90
3134;DHT22;1577;49.912;10.924;2024-01-30T14:22:12;8.80;99.90
3134;DHT22;1577;49.912;10.924;2024-01-30T14:24:38;8.70;99.90
3134;DHT22;1577;49.912;10.924;2024-01-30T14:27:03;8.80;99.90
3134;DHT22;1577;49.912;10.924;2024-01-30T14:29:29;8.80;99.90
3134;DHT22;1577;49.912;10.924;2024-01-30T14:31:55;8.70;99.90
3134;DHT22;1577;49.912;10.924;2024-01-30T14:34:21;8.60;99.90
3134;DHT22;1577;49.912;10.924;2024-01-30T14:36:46;8.60;99.90
3134;DHT22;1577;49.912;10.924;2024-01-30T14:39:12;8.50;99.90
3134;DHT22;1577;49.912;10.924;2024-01-30T14:41:37;8.50;99.90
3134;DHT22;1577;49.912;10.924;2024-01-30T14:44:03;8.50;99.90
3134;DHT22;1577;49.912;10.924;2024-01-30T14:46:30;8.50;99.90
3134;DHT22;1577;49.912;10.924;2024-01-30T14:48:56;8.60;99.90
3134;DHT22;1577;49.912;10.924;2024-01-30T14:51:23;8.50;99.90
3134;DHT22;1577;49.912;10.924;2024-01-30T14:53:48;8.50;99.90
3134;DHT22;1577;49.912;10.924;2024-01-30T14:56:14;8.50;99.90
3134;DHT22;1577;49.912;10.924;2024-01-30T14:58:40;8.40;99.90
3134;DHT22;1577;49.912;10.924;2024-01-30T15:01:05;8.40;99.90
3134;DHT22;1577;49.912;10.924;2024-01-30T15:03:31;8.30;99.90
3134;DHT22;1577;49.912;10.924;2024-01-30T15:05:56;8.30;99.90
3134;DHT22;1577;49.912;10.924;2024-01-30T15:08:22;8.30;99.90
3134;DHT22;1577;49.912;10.924;2024-01-30T15:10:48;8.40;99.90
3134;DHT22;1577;49.912;10.924;2024-01-30T15:13:15;8.30;99.90
3134;DHT22;1577;49.912;10.924;2024-01-30T15:15:41;8.20;99.90
3134;DHT22;1577;49.912;10.924;2024-01-30T15:18:08;8.20;99.90
3134;DHT22;1577;49.912;10.924;2024-01-30T15:20:36;8.20;99.90
3134;DHT22;1577;49.912;10.924;2024-01-30T15:23:02;8.20;99.90
3134;DHT22;1577;49.912;10.924;2024-01-30T15:25:28;8.20;99.90
3134;DHT22;1577;49.912;10.924;2024-01-30T15:27:54;8.00;99.90
3134;DHT22;1577;49.912;10.924;2024-01-30T15:30:20;8.00;99.90
3134;DHT22;1577;49.912;10.924;2024-01-30T15:32:46;7.90;99.90
3134;DHT22;1577;49.912;10.924;2024-01-30T15:35:12;7.90;99.90
3134;DHT22;1577;49.912;10.924;2024-01-30T15:37:38;7.90;99.90
3134;DHT22;1577;49.912;10.924;2024-01-30T15:40:04;7.90;99.90
3134;DHT22;1577;49.912;10.924;2024-01-30T15:42:32;7.90;99.90
3134;DHT22;1577;49.912;10.924;2024-01-30T15:44:57;7.90;99.90
3134;DHT22;1577;49.912;10.924;2024-01-30T15:47:24;7.80;99.90
3134;DHT22;1577;49.912;10.924;2024-01-30T15:49:50;7.70;99.90